createdAt,value
2023-04-23T00:00:12.026Z,3.20
2023-04-23T00:01:12.021Z,2.80
2023-04-23T00:02:12.132Z,3.20
2023-04-23T00:03:12.078Z,3.00
2023-04-23T00:04:12.293Z,3.80
2023-04-23T00:05:11.999Z,3.50
2023-04-23T00:06:11.958Z,2.50
2023-04-23T00:07:11.949Z,2.30
2023-04-23T00:08:11.936Z,2.70
2023-04-23T00:09:11.967Z,3.30
2023-04-23T00:10:11.921Z,2.40
2023-04-23T00:11:11.904Z,3.30
2023-04-23T00:12:11.892Z,3.50
2023-04-23T00:13:11.881Z,2.20
2023-04-23T00:14:11.882Z,3.20
2023-04-23T00:15:11.879Z,2.70
2023-04-23T00:16:11.879Z,3.60
2023-04-23T00:17:11.843Z,3.40
2023-04-23T00:18:11.829Z,3.20
2023-04-23T00:19:11.816Z,3.50
2023-04-23T00:20:11.808Z,2.60
2023-04-23T00:21:11.810Z,4.20
2023-04-23T00:22:11.796Z,2.70
2023-04-23T00:23:11.788Z,3.00
2023-04-23T00:24:11.776Z,2.70
2023-04-23T00:25:11.784Z,4.20
2023-04-23T00:26:11.748Z,3.50
2023-04-23T00:27:11.731Z,3.50
2023-04-23T00:28:11.733Z,2.50
2023-04-23T00:29:11.726Z,2.60
2023-04-23T00:30:11.724Z,3.50
2023-04-23T00:31:11.691Z,3.60
2023-04-23T00:32:11.704Z,3.60
2023-04-23T00:33:11.670Z,3.30
2023-04-23T00:34:11.664Z,4.90
2023-04-23T00:35:11.662Z,3.10
2023-04-23T00:36:11.643Z,2.80
2023-04-23T00:37:11.633Z,2.80
2023-04-23T00:38:11.615Z,2.80
2023-04-23T00:39:11.603Z,3.20
2023-04-23T00:40:11.595Z,3.10
2023-04-23T00:41:11.637Z,3.30
2023-04-23T00:42:11.568Z,3.70
2023-04-23T00:43:11.595Z,3.30
2023-04-23T00:44:11.550Z,3.20
2023-04-23T00:45:11.540Z,3.20
2023-04-23T00:46:11.560Z,3.40
2023-04-23T00:47:11.533Z,4.30
2023-04-23T00:48:11.510Z,3.30
2023-04-23T00:49:11.510Z,2.90
2023-04-23T00:50:11.529Z,3.20
2023-04-23T00:51:11.491Z,4.00
2023-04-23T00:52:11.484Z,3.30
2023-04-23T00:53:11.462Z,3.10
2023-04-23T00:54:11.443Z,3.60
2023-04-23T00:55:11.423Z,3.60
2023-04-23T00:56:11.420Z,3.10
2023-04-23T00:57:11.435Z,3.70
2023-04-23T00:58:11.409Z,3.20
2023-04-23T00:59:11.386Z,3.60
2023-04-23T01:00:11.378Z,2.50
2023-04-23T01:01:11.417Z,3.90
2023-04-23T01:02:11.383Z,2.80
2023-04-23T01:03:11.682Z,2.80
2023-04-23T01:04:11.483Z,3.20
2023-04-23T01:05:11.323Z,2.90
2023-04-23T01:06:11.314Z,2.50
2023-04-23T01:07:11.301Z,2.30
2023-04-23T01:08:11.293Z,2.60
2023-04-23T01:09:11.287Z,3.00
2023-04-23T01:10:11.269Z,2.80
2023-04-23T01:11:11.261Z,3.20
2023-04-23T01:12:11.262Z,3.30
2023-04-23T01:13:11.261Z,2.80
2023-04-23T01:14:11.223Z,2.80
2023-04-23T01:15:11.213Z,2.60
2023-04-23T01:16:11.206Z,2.70
2023-04-23T01:17:11.197Z,2.50
2023-04-23T01:18:11.193Z,3.10
2023-04-23T01:19:11.170Z,2.60
2023-04-23T01:20:11.160Z,2.30
2023-04-23T01:21:11.153Z,4.10
2023-04-23T01:22:11.147Z,2.90
2023-04-23T01:23:11.145Z,2.70
2023-04-23T01:24:11.110Z,2.90
2023-04-23T01:25:11.116Z,3.80
2023-04-23T01:26:11.125Z,2.50
2023-04-23T01:27:11.092Z,3.40
2023-04-23T01:28:11.073Z,4.00
2023-04-23T01:29:11.100Z,2.80
2023-04-23T01:30:11.043Z,2.80
2023-04-23T01:31:11.053Z,2.60
2023-04-23T01:32:11.027Z,2.90
2023-04-23T01:33:11.020Z,4.00
2023-04-23T01:34:11.015Z,2.60
2023-04-23T01:35:10.996Z,3.30
2023-04-23T01:36:10.984Z,2.90
2023-04-23T01:37:10.971Z,3.00
2023-04-23T01:38:10.967Z,2.80
2023-04-23T01:39:10.949Z,3.10
2023-04-23T01:40:10.966Z,4.00
2023-04-23T01:41:10.926Z,3.00
2023-04-23T01:42:10.914Z,3.00
2023-04-23T01:43:10.917Z,4.00
2023-04-23T01:44:10.895Z,3.60
2023-04-23T01:45:10.922Z,3.00
2023-04-23T01:46:10.931Z,3.40
2023-04-23T01:47:10.866Z,2.70
2023-04-23T01:48:10.851Z,3.20
2023-04-23T01:49:10.839Z,3.30
2023-04-23T01:50:10.860Z,3.80
2023-04-23T01:51:10.830Z,2.60
2023-04-23T01:52:10.830Z,2.50
2023-04-23T01:53:10.796Z,2.90
2023-04-23T01:54:10.781Z,2.50
2023-04-23T01:55:10.787Z,3.00
2023-04-23T01:56:10.771Z,4.20
2023-04-23T01:57:10.770Z,3.70
2023-04-23T01:58:10.736Z,3.60
2023-04-23T01:59:10.767Z,3.30
2023-04-23T02:00:10.720Z,3.00
2023-04-23T02:01:10.787Z,2.80
2023-04-23T02:02:10.775Z,2.90
2023-04-23T02:03:10.892Z,3.70
2023-04-23T02:04:10.835Z,2.80
2023-04-23T02:05:10.666Z,3.20
2023-04-23T02:06:10.655Z,2.60
2023-04-23T02:07:10.642Z,2.90
2023-04-23T02:08:10.638Z,3.90
2023-04-23T02:09:10.631Z,3.00
2023-04-23T02:10:10.629Z,3.50
2023-04-23T02:11:10.611Z,2.60
2023-04-23T02:12:10.594Z,2.50
2023-04-23T02:13:10.630Z,3.70
2023-04-23T02:14:10.572Z,2.40
2023-04-23T02:15:10.561Z,3.40
2023-04-23T02:16:10.575Z,2.70
2023-04-23T02:17:10.552Z,2.50
2023-04-23T02:18:10.521Z,3.10
2023-04-23T02:19:10.510Z,2.60
2023-04-23T02:20:10.569Z,3.00
2023-04-23T02:21:10.490Z,2.50
2023-04-23T02:22:10.486Z,2.60
2023-04-23T02:23:10.481Z,3.10
2023-04-23T02:24:10.466Z,2.40
2023-04-23T02:25:10.447Z,3.40
2023-04-23T02:26:10.459Z,3.50
2023-04-23T02:27:10.438Z,2.90
2023-04-23T02:28:10.418Z,2.80
2023-04-23T02:29:10.408Z,3.00
2023-04-23T02:30:10.393Z,3.20
2023-04-23T02:31:10.410Z,3.70
2023-04-23T02:32:10.366Z,2.60
2023-04-23T02:33:10.394Z,2.60
2023-04-23T02:34:10.347Z,3.10
2023-04-23T02:35:10.338Z,2.40
2023-04-23T02:36:10.360Z,3.10
2023-04-23T02:37:10.317Z,2.50
2023-04-23T02:38:10.313Z,3.40
2023-04-23T02:39:10.294Z,3.10
2023-04-23T02:40:10.308Z,3.50
2023-04-23T02:41:10.271Z,3.70
2023-04-23T02:42:10.264Z,3.50
2023-04-23T02:43:10.270Z,2.50
2023-04-23T02:44:10.235Z,2.90
2023-04-23T02:45:10.238Z,2.90
2023-04-23T02:46:10.231Z,2.60
2023-04-23T02:47:10.207Z,3.00
2023-04-23T02:48:10.219Z,2.90
2023-04-23T02:49:10.213Z,3.20
2023-04-23T02:50:10.205Z,4.00
2023-04-23T02:51:10.168Z,3.80
2023-04-23T02:52:10.154Z,2.80
2023-04-23T02:53:10.143Z,3.20
2023-04-23T02:54:10.129Z,3.50
2023-04-23T02:55:10.124Z,2.90
2023-04-23T02:56:10.118Z,3.00
2023-04-23T02:57:10.098Z,3.90
2023-04-23T02:58:10.081Z,3.00
2023-04-23T02:59:10.071Z,3.30
2023-04-23T03:00:10.061Z,3.10
2023-04-23T03:01:10.071Z,3.00
2023-04-23T03:02:10.132Z,2.70
2023-04-23T03:03:12.493Z,2.70
2023-04-23T03:04:10.319Z,2.50
2023-04-23T03:05:10.053Z,3.20
2023-04-23T03:06:10.015Z,3.30
2023-04-23T03:07:10.002Z,3.40
2023-04-23T03:08:09.978Z,3.30
2023-04-23T03:09:09.967Z,3.50
2023-04-23T03:10:09.953Z,2.50
2023-04-23T03:11:09.940Z,3.60
2023-04-23T03:12:09.949Z,3.10
2023-04-23T03:13:09.922Z,3.60
2023-04-23T03:14:09.907Z,3.60
2023-04-23T03:15:09.896Z,3.20
2023-04-23T03:16:09.893Z,3.20
2023-04-23T03:17:09.884Z,3.60
2023-04-23T03:18:09.880Z,2.90
2023-04-23T03:19:09.867Z,3.20
2023-04-23T03:20:09.842Z,3.30
2023-04-23T03:21:09.849Z,2.60
2023-04-23T03:22:09.814Z,2.70
2023-04-23T03:23:09.824Z,2.60
2023-04-23T03:24:09.805Z,4.20
2023-04-23T03:25:09.804Z,3.30
2023-04-23T03:26:09.792Z,3.00
2023-04-23T03:27:09.775Z,3.50
2023-04-23T03:28:09.756Z,3.30
2023-04-23T03:29:09.741Z,3.10
2023-04-23T03:30:09.750Z,2.50
2023-04-23T03:31:09.772Z,2.60
2023-04-23T03:32:09.706Z,2.90
2023-04-23T03:33:09.695Z,3.00
2023-04-23T03:34:09.710Z,2.20
2023-04-23T03:35:09.739Z,2.40
2023-04-23T03:36:09.683Z,2.70
2023-04-23T03:37:09.693Z,2.50
2023-04-23T03:38:09.639Z,3.30
2023-04-23T03:39:09.631Z,3.50
2023-04-23T03:40:09.625Z,2.80
2023-04-23T03:41:09.618Z,3.60
2023-04-23T03:42:09.619Z,3.60
2023-04-23T03:43:09.587Z,2.50
2023-04-23T03:44:09.590Z,3.70
2023-04-23T03:45:09.574Z,2.50
2023-04-23T03:46:09.585Z,2.80
2023-04-23T03:47:09.547Z,3.00
2023-04-23T03:48:09.565Z,2.50
2023-04-23T03:49:09.522Z,3.80
2023-04-23T03:50:09.533Z,2.60
2023-04-23T03:51:09.504Z,3.10
2023-04-23T03:52:09.497Z,2.80
2023-04-23T03:53:09.523Z,3.20
2023-04-23T03:54:09.479Z,2.50
2023-04-23T03:55:09.463Z,2.70
2023-04-23T03:56:09.446Z,2.60
2023-04-23T03:57:09.445Z,3.50
2023-04-23T03:58:09.426Z,3.30
2023-04-23T03:59:09.455Z,3.50
2023-04-23T04:00:09.418Z,2.90
2023-04-23T04:01:09.396Z,2.60
2023-04-23T04:02:09.445Z,3.20
2023-04-23T04:03:09.574Z,2.60
2023-04-23T04:04:09.548Z,2.70
2023-04-23T04:05:09.684Z,2.40
2023-04-23T04:06:09.342Z,2.60
2023-04-23T04:07:09.334Z,2.30
2023-04-23T04:08:09.316Z,3.30
2023-04-23T04:09:09.349Z,2.70
2023-04-23T04:10:09.313Z,3.00
2023-04-23T04:11:09.295Z,2.90
2023-04-23T04:12:09.282Z,2.60
2023-04-23T04:13:09.267Z,2.70
2023-04-23T04:14:09.257Z,2.40
2023-04-23T04:15:09.259Z,3.00
2023-04-23T04:16:09.263Z,2.80
2023-04-23T04:17:09.245Z,2.60
2023-04-23T04:18:09.221Z,2.70
2023-04-23T04:19:09.218Z,3.00
2023-04-23T04:20:09.196Z,2.40
2023-04-23T04:21:09.193Z,2.50
2023-04-23T04:22:09.169Z,4.00
2023-04-23T04:23:09.171Z,2.60
2023-04-23T04:24:09.158Z,2.60
2023-04-23T04:25:09.169Z,2.50
2023-04-23T04:26:09.117Z,3.00
2023-04-23T04:27:09.149Z,3.00
2023-04-23T04:28:09.129Z,3.50
2023-04-23T04:29:09.102Z,3.10
2023-04-23T04:30:09.085Z,3.00
2023-04-23T04:31:09.120Z,2.40
2023-04-23T04:32:09.056Z,3.20
2023-04-23T04:33:09.052Z,2.30
2023-04-23T04:34:09.051Z,3.00
2023-04-23T04:35:09.054Z,3.10
2023-04-23T04:36:09.027Z,2.70
2023-04-23T04:37:09.003Z,3.20
2023-04-23T04:38:09.004Z,2.30
2023-04-23T04:39:08.984Z,2.80
2023-04-23T04:40:08.977Z,2.90
2023-04-23T04:41:08.985Z,3.30
2023-04-23T04:42:08.958Z,4.00
2023-04-23T04:43:08.935Z,2.90
2023-04-23T04:44:08.931Z,3.00
2023-04-23T04:45:08.920Z,3.10
2023-04-23T04:46:08.916Z,2.80
2023-04-23T04:47:09.046Z,2.80
2023-04-23T04:48:08.895Z,2.50
2023-04-23T04:49:08.906Z,3.00
2023-04-23T04:50:08.853Z,3.10
2023-04-23T04:51:08.846Z,2.80
2023-04-23T04:52:08.841Z,2.80
2023-04-23T04:53:08.825Z,2.60
2023-04-23T04:54:08.843Z,2.60
2023-04-23T04:55:08.804Z,3.90
2023-04-23T04:56:08.792Z,2.40
2023-04-23T04:57:08.817Z,2.80
2023-04-23T04:58:08.767Z,3.30
2023-04-23T04:59:08.804Z,2.40
2023-04-23T05:00:08.762Z,2.70
2023-04-23T05:01:08.764Z,2.70
2023-04-23T05:02:08.783Z,2.60
2023-04-23T05:03:10.369Z,2.70
2023-04-23T05:04:08.932Z,2.80
2023-04-23T05:05:08.704Z,3.00
2023-04-23T05:06:08.719Z,2.40
2023-04-23T05:07:08.670Z,2.50
2023-04-23T05:08:08.687Z,4.10
2023-04-23T05:09:08.654Z,3.00
2023-04-23T05:10:08.637Z,2.40
2023-04-23T05:11:08.647Z,2.40
2023-04-23T05:12:08.628Z,2.90
2023-04-23T05:13:08.628Z,3.20
2023-04-23T05:14:08.607Z,3.10
2023-04-23T05:15:08.592Z,3.00
2023-04-23T05:16:08.601Z,3.20
2023-04-23T05:17:08.587Z,2.60
2023-04-23T05:18:08.563Z,3.70
2023-04-23T05:19:08.642Z,2.90
2023-04-23T05:20:08.539Z,4.10
2023-04-23T05:21:08.524Z,2.60
2023-04-23T05:22:08.523Z,3.40
2023-04-23T05:23:08.515Z,2.80
2023-04-23T05:24:08.493Z,2.60
2023-04-23T05:25:08.479Z,2.60
2023-04-23T05:26:08.473Z,2.70
2023-04-23T05:27:08.460Z,3.30
2023-04-23T05:28:08.459Z,2.70
2023-04-23T05:29:08.456Z,2.50
2023-04-23T05:30:08.448Z,2.40
2023-04-23T05:31:08.432Z,2.80
2023-04-23T05:32:08.452Z,2.60
2023-04-23T05:33:08.410Z,3.10
2023-04-23T05:34:08.393Z,2.50
2023-04-23T05:35:08.376Z,2.50
2023-04-23T05:36:08.367Z,2.80
2023-04-23T05:37:08.346Z,2.70
2023-04-23T05:38:08.338Z,3.10
2023-04-23T05:39:08.329Z,2.60
2023-04-23T05:40:08.325Z,2.80
2023-04-23T05:41:08.370Z,2.60
2023-04-23T05:42:08.296Z,2.50
2023-04-23T05:43:08.284Z,3.10
2023-04-23T05:44:08.271Z,2.40
2023-04-23T05:45:09.198Z,3.90
2023-04-23T05:46:08.318Z,2.60
2023-04-23T05:47:08.252Z,2.50
2023-04-23T05:48:08.234Z,3.00
2023-04-23T05:49:08.220Z,2.80
2023-04-23T05:50:08.213Z,2.50
2023-04-23T05:51:08.213Z,3.40
2023-04-23T05:52:08.186Z,2.60
2023-04-23T05:53:08.174Z,2.60
2023-04-23T05:54:08.178Z,3.60
2023-04-23T05:55:08.144Z,2.40
2023-04-23T05:56:08.143Z,3.10
2023-04-23T05:57:08.134Z,3.20
2023-04-23T05:58:08.116Z,3.00
2023-04-23T05:59:08.102Z,2.60
2023-04-23T06:00:08.101Z,3.00
2023-04-23T06:01:08.101Z,2.60
2023-04-23T06:02:08.197Z,2.60
2023-04-23T06:03:08.178Z,2.90
2023-04-23T06:04:08.211Z,2.80
2023-04-23T06:05:08.293Z,2.60
2023-04-23T06:06:08.026Z,2.60
2023-04-23T06:07:08.014Z,3.10
2023-04-23T06:08:08.012Z,3.60
2023-04-23T06:09:07.985Z,2.60
2023-04-23T06:10:07.989Z,3.40
2023-04-23T06:11:07.985Z,2.70
2023-04-23T06:12:07.963Z,2.60
2023-04-23T06:13:07.950Z,2.80
2023-04-23T06:14:07.937Z,2.90
2023-04-23T06:15:07.935Z,2.50
2023-04-23T06:16:07.942Z,2.40
2023-04-23T06:17:07.936Z,2.60
2023-04-23T06:18:08.095Z,3.70
2023-04-23T06:19:07.878Z,3.20
2023-04-23T06:20:07.867Z,3.90
2023-04-23T06:21:07.872Z,2.90
2023-04-23T06:22:07.847Z,3.00
2023-04-23T06:23:07.834Z,2.80
2023-04-23T06:24:07.840Z,2.70
2023-04-23T06:25:07.811Z,3.40
2023-04-23T06:26:07.800Z,3.20
2023-04-23T06:27:07.802Z,3.00
2023-04-23T06:28:07.799Z,3.70
2023-04-23T06:29:07.788Z,3.40
2023-04-23T06:30:07.764Z,2.50
2023-04-23T06:31:07.774Z,3.40
2023-04-23T06:32:07.734Z,2.90
2023-04-23T06:33:07.754Z,2.60
2023-04-23T06:34:07.720Z,3.90
2023-04-23T06:35:08.531Z,3.40
2023-04-23T06:36:07.700Z,4.00
2023-04-23T06:37:07.687Z,4.00
2023-04-23T06:38:07.680Z,3.30
2023-04-23T06:39:07.665Z,3.10
2023-04-23T06:40:07.688Z,2.70
2023-04-23T06:41:07.655Z,2.50
2023-04-23T06:42:07.636Z,2.80
2023-04-23T06:43:07.621Z,3.40
2023-04-23T06:44:07.614Z,3.10
2023-04-23T06:45:07.620Z,3.10
2023-04-23T06:46:07.591Z,2.90
2023-04-23T06:47:07.662Z,2.50
2023-04-23T06:48:07.621Z,2.50
2023-04-23T06:49:07.586Z,2.90
2023-04-23T06:50:07.548Z,2.50
2023-04-23T06:51:07.537Z,2.40
2023-04-23T06:52:07.522Z,2.90
2023-04-23T06:53:07.522Z,3.80
2023-04-23T06:54:07.499Z,2.70
2023-04-23T06:55:07.494Z,3.00
2023-04-23T06:56:07.490Z,2.90
2023-04-23T06:57:07.465Z,3.10
2023-04-23T06:58:07.447Z,3.40
2023-04-23T06:59:07.442Z,2.60
2023-04-23T07:00:07.561Z,3.00
2023-04-23T07:01:07.537Z,3.00
2023-04-23T07:02:07.434Z,2.50
2023-04-23T07:03:07.617Z,2.70
2023-04-23T07:04:07.422Z,2.90
2023-04-23T07:05:07.411Z,2.30
2023-04-23T07:06:07.390Z,3.30
2023-04-23T07:07:07.364Z,2.70
2023-04-23T07:08:07.356Z,2.90
2023-04-23T07:09:07.384Z,2.70
2023-04-23T07:10:07.339Z,3.50
2023-04-23T07:11:07.323Z,2.50
2023-04-23T07:12:07.392Z,2.50
2023-04-23T07:13:07.537Z,3.20
2023-04-23T07:14:07.297Z,2.80
2023-04-23T07:15:07.311Z,3.00
2023-04-23T07:16:07.327Z,2.50
2023-04-23T07:17:07.320Z,2.40
2023-04-23T07:18:07.276Z,2.90
2023-04-23T07:19:07.240Z,3.10
2023-04-23T07:20:07.241Z,2.60
2023-04-23T07:21:07.267Z,2.70
2023-04-23T07:22:07.219Z,2.60
2023-04-23T07:23:07.201Z,2.60
2023-04-23T07:24:07.515Z,3.60
2023-04-23T07:25:07.191Z,3.20
2023-04-23T07:26:07.173Z,3.50
2023-04-23T07:27:07.165Z,2.80
2023-04-23T07:28:07.167Z,3.60
2023-04-23T07:29:07.140Z,2.50
2023-04-23T07:30:07.136Z,3.30
2023-04-23T07:31:07.121Z,2.60
2023-04-23T07:32:07.173Z,3.40
2023-04-23T07:33:07.129Z,2.60
2023-04-23T07:34:07.121Z,2.90
2023-04-23T07:35:07.082Z,2.70
2023-04-23T07:36:07.073Z,3.00
2023-04-23T07:37:07.079Z,2.70
2023-04-23T07:38:07.041Z,3.00
2023-04-23T07:39:07.031Z,3.50
2023-04-23T07:40:07.304Z,3.10
2023-04-23T07:41:07.018Z,3.40
2023-04-23T07:42:07.027Z,3.60
2023-04-23T07:43:06.986Z,2.70
2023-04-23T07:44:06.968Z,2.90
2023-04-23T07:45:06.964Z,2.80
2023-04-23T07:46:07.032Z,3.00
2023-04-23T07:47:06.948Z,3.00
2023-04-23T07:48:07.014Z,3.30
2023-04-23T07:49:06.921Z,2.90
2023-04-23T07:50:06.939Z,3.00
2023-04-23T07:51:06.889Z,4.10
2023-04-23T07:52:06.880Z,3.70
2023-04-23T07:53:06.898Z,2.70
2023-04-23T07:54:06.859Z,2.50
2023-04-23T07:55:06.850Z,3.20
2023-04-23T07:56:06.851Z,2.60
2023-04-23T07:57:06.830Z,3.90
2023-04-23T07:58:06.828Z,2.90
2023-04-23T07:59:06.807Z,2.60
2023-04-23T08:00:06.812Z,3.00
2023-04-23T08:01:06.782Z,2.80
2023-04-23T08:02:06.845Z,2.70
2023-04-23T08:03:06.892Z,3.20
2023-04-23T08:04:07.024Z,2.90
2023-04-23T08:05:06.954Z,3.10
2023-04-23T08:06:06.733Z,3.20
2023-04-23T08:07:06.713Z,3.20
2023-04-23T08:08:06.707Z,3.60
2023-04-23T08:09:06.786Z,2.60
2023-04-23T08:10:06.739Z,2.60
2023-04-23T08:11:06.690Z,3.50
2023-04-23T08:12:06.665Z,3.30
2023-04-23T08:13:06.649Z,2.70
2023-04-23T08:14:06.661Z,3.50
2023-04-23T08:15:06.623Z,2.60
2023-04-23T08:16:06.678Z,3.40
2023-04-23T08:17:06.604Z,3.00
2023-04-23T08:18:06.596Z,3.00
2023-04-23T08:19:06.751Z,2.70
2023-04-23T08:20:06.583Z,2.70
2023-04-23T08:21:06.559Z,3.30
2023-04-23T08:22:06.551Z,3.00
2023-04-23T08:23:06.531Z,3.00
2023-04-23T08:24:06.532Z,2.80
2023-04-23T08:25:06.565Z,3.10
2023-04-23T08:26:06.499Z,3.40
2023-04-23T08:27:06.494Z,3.10
2023-04-23T08:28:06.490Z,2.60
2023-04-23T08:29:06.468Z,3.00
2023-04-23T08:30:06.455Z,2.70
2023-04-23T08:31:19.003Z,3.00
2023-04-23T08:32:07.478Z,2.70
2023-04-23T08:33:06.435Z,2.90
2023-04-23T08:34:06.406Z,3.20
2023-04-23T08:35:06.433Z,3.20
2023-04-23T08:36:06.391Z,3.40
2023-04-23T08:37:08.538Z,4.10
2023-04-23T08:38:07.366Z,2.80
2023-04-23T08:39:06.351Z,4.50
2023-04-23T08:40:06.337Z,3.20
2023-04-23T08:41:06.368Z,3.50
2023-04-23T08:42:06.340Z,3.60
2023-04-23T08:43:06.309Z,3.00
2023-04-23T08:44:06.291Z,4.10
2023-04-23T08:45:06.360Z,3.10
2023-04-23T08:46:06.287Z,3.20
2023-04-23T08:47:06.266Z,2.90
2023-04-23T08:48:06.280Z,4.00
2023-04-23T08:49:06.250Z,4.20
2023-04-23T08:50:06.238Z,3.90
2023-04-23T08:51:06.225Z,4.60
2023-04-23T08:52:06.224Z,4.00
2023-04-23T08:53:06.198Z,3.30
2023-04-23T08:54:06.228Z,4.70
2023-04-23T08:55:06.390Z,3.40
2023-04-23T08:56:06.173Z,3.30
2023-04-23T08:57:06.193Z,3.30
2023-04-23T08:58:06.144Z,3.80
2023-04-23T08:59:06.160Z,3.10
2023-04-23T09:00:06.131Z,3.70
2023-04-23T09:01:06.183Z,4.80
2023-04-23T09:02:06.213Z,3.60
2023-04-23T09:03:06.355Z,3.40
2023-04-23T09:04:06.111Z,4.50
2023-04-23T09:05:06.091Z,3.30
2023-04-23T09:06:06.074Z,4.10
2023-04-23T09:07:06.056Z,4.60
2023-04-23T09:08:06.038Z,4.00
2023-04-23T09:09:06.035Z,6.00
2023-04-23T09:10:06.028Z,3.40
2023-04-23T09:11:06.012Z,3.60
2023-04-23T09:12:05.993Z,4.50
2023-04-23T09:13:06.004Z,4.00
2023-04-23T09:14:05.981Z,4.00
2023-04-23T09:15:05.958Z,3.80
2023-04-23T09:16:05.990Z,4.30
2023-04-23T09:17:05.976Z,3.80
2023-04-23T09:18:05.972Z,3.50
2023-04-23T09:19:05.922Z,4.60
2023-04-23T09:20:05.918Z,4.10
2023-04-23T09:21:05.885Z,4.60
2023-04-23T09:22:05.878Z,4.50
2023-04-23T09:23:05.873Z,3.90
2023-04-23T09:24:05.864Z,3.90
2023-04-23T09:25:05.853Z,3.70
2023-04-23T09:26:05.855Z,4.30
2023-04-23T09:27:05.828Z,5.00
2023-04-23T09:28:05.813Z,4.30
2023-04-23T09:29:05.825Z,4.00
2023-04-23T09:30:05.820Z,4.00
2023-04-23T09:31:05.778Z,5.20
2023-04-23T09:32:05.822Z,4.60
2023-04-23T09:33:05.789Z,3.70
2023-04-23T09:34:05.752Z,4.20
2023-04-23T09:35:05.732Z,4.50
2023-04-23T09:36:05.742Z,4.00
2023-04-23T09:37:05.720Z,4.30
2023-04-23T09:38:05.718Z,4.30
2023-04-23T09:39:05.689Z,4.00
2023-04-23T09:40:05.688Z,4.40
2023-04-23T09:41:05.667Z,5.60
2023-04-23T09:42:05.715Z,3.70
2023-04-23T09:43:05.659Z,3.80
2023-04-23T09:44:05.649Z,3.90
2023-04-23T09:45:05.849Z,4.60
2023-04-23T09:46:05.660Z,4.10
2023-04-23T09:47:05.616Z,4.40
2023-04-23T09:48:05.661Z,3.80
2023-04-23T09:49:05.587Z,4.00
2023-04-23T09:50:05.578Z,4.10
2023-04-23T09:51:05.558Z,3.90
2023-04-23T09:52:05.550Z,4.50
2023-04-23T09:53:05.539Z,3.70
2023-04-23T09:54:05.555Z,4.00
2023-04-23T09:55:05.510Z,3.80
2023-04-23T09:56:05.505Z,3.90
2023-04-23T09:57:05.492Z,4.80
2023-04-23T09:58:05.481Z,3.90
2023-04-23T09:59:05.477Z,3.90
2023-04-23T10:00:14.172Z,3.80
2023-04-23T10:01:06.565Z,4.10
2023-04-23T10:02:05.573Z,4.60
2023-04-23T10:03:05.525Z,4.00
2023-04-23T10:04:05.694Z,4.40
2023-04-23T10:05:21.672Z,5.30
2023-04-23T10:06:07.600Z,4.40
2023-04-23T10:07:18.069Z,3.90
2023-04-23T10:08:06.375Z,4.00
2023-04-23T10:09:05.361Z,4.60
2023-04-23T10:10:05.368Z,4.00
2023-04-23T10:11:19.902Z,4.40
2023-04-23T10:12:11.397Z,4.50
2023-04-23T10:13:06.309Z,4.50
2023-04-23T10:14:05.301Z,3.90
2023-04-23T10:15:05.295Z,4.30
2023-04-23T10:16:20.630Z,5.80
2023-04-23T10:17:06.399Z,4.20
2023-04-23T10:18:05.339Z,4.00
2023-04-23T10:19:05.253Z,3.90
2023-04-23T10:20:05.246Z,4.00
2023-04-23T10:21:05.241Z,4.10
2023-04-23T10:22:18.557Z,4.60
2023-04-23T10:23:06.228Z,4.40
2023-04-23T10:24:05.193Z,5.10
2023-04-23T10:25:05.180Z,4.30
2023-04-23T10:26:05.194Z,4.00
2023-04-23T10:27:05.169Z,4.70
2023-04-23T10:28:05.152Z,4.90
2023-04-23T10:29:05.136Z,4.50
2023-04-23T10:30:06.426Z,4.30
2023-04-23T10:31:05.157Z,4.60
2023-04-23T10:32:05.148Z,4.10
2023-04-23T10:33:10.821Z,4.20
2023-04-23T10:34:06.310Z,4.00
2023-04-23T10:35:05.075Z,4.50
2023-04-23T10:36:05.058Z,3.90
2023-04-23T10:37:05.079Z,4.00
2023-04-23T10:38:05.085Z,4.10
2023-04-23T10:39:05.357Z,4.20
2023-04-23T10:40:05.033Z,3.70
2023-04-23T10:41:05.002Z,3.90
2023-04-23T10:42:05.033Z,4.10
2023-04-23T10:43:05.000Z,3.90
2023-04-23T10:44:04.972Z,3.60
2023-04-23T10:45:13.131Z,4.60
2023-04-23T10:46:06.078Z,3.60
2023-04-23T10:47:04.940Z,4.00
2023-04-23T10:48:04.998Z,4.60
2023-04-23T10:49:05.106Z,3.70
2023-04-23T10:50:04.904Z,3.50
2023-04-23T10:51:21.305Z,6.10
2023-04-23T10:52:19.308Z,3.80
2023-04-23T10:53:05.945Z,4.50
2023-04-23T10:54:04.948Z,4.00
2023-04-23T10:55:04.900Z,3.70
2023-04-23T10:56:04.846Z,3.80
2023-04-23T10:57:04.864Z,3.60
2023-04-23T10:58:04.887Z,4.30
2023-04-23T10:59:04.813Z,3.20
2023-04-23T11:00:04.811Z,4.30
2023-04-23T11:01:04.821Z,3.70
2023-04-23T11:02:04.866Z,3.70
2023-04-23T11:03:04.973Z,3.30
2023-04-23T11:04:05.000Z,3.50
2023-04-23T11:05:04.866Z,3.50
2023-04-23T11:06:04.737Z,3.70
2023-04-23T11:07:04.715Z,3.80
2023-04-23T11:08:18.216Z,3.70
2023-04-23T11:09:05.699Z,4.30
2023-04-23T11:10:04.691Z,3.70
2023-04-23T11:11:04.680Z,3.80
2023-04-23T11:12:04.674Z,3.60
2023-04-23T11:13:04.652Z,3.50
2023-04-23T11:14:04.653Z,3.30
2023-04-23T11:15:04.631Z,3.70
2023-04-23T11:16:04.652Z,3.60
2023-04-23T11:17:04.616Z,3.40
2023-04-23T11:18:04.702Z,3.50
2023-04-23T11:19:04.589Z,6.50
2023-04-23T11:20:04.600Z,8.00
2023-04-23T11:21:04.610Z,15.50
2023-04-23T11:22:04.565Z,5.00
2023-04-23T11:23:04.544Z,9.20
2023-04-23T11:24:04.542Z,23.20
2023-04-23T11:25:04.533Z,26.40
2023-04-23T11:26:04.512Z,23.20
2023-04-23T11:27:04.506Z,10.30
2023-04-23T11:28:04.495Z,14.80
2023-04-23T11:29:04.480Z,12.00
2023-04-23T11:30:04.486Z,35.50
2023-04-23T11:31:04.481Z,16.00
2023-04-23T11:32:04.495Z,8.70
2023-04-23T11:33:04.525Z,5.10
2023-04-23T11:34:04.440Z,4.40
2023-04-23T11:35:04.430Z,5.30
2023-04-23T11:36:04.449Z,8.40
2023-04-23T11:37:04.430Z,4.50
2023-04-23T11:38:04.388Z,3.90
2023-04-23T11:39:04.379Z,4.10
2023-04-23T11:40:04.378Z,4.10
2023-04-23T11:41:04.356Z,5.70
2023-04-23T11:42:04.357Z,4.80
2023-04-23T11:43:04.342Z,3.80
2023-04-23T11:44:04.320Z,4.00
2023-04-23T11:45:04.315Z,4.40
2023-04-23T11:46:04.357Z,3.40
2023-04-23T11:47:04.293Z,3.40
2023-04-23T11:48:04.309Z,3.40
2023-04-23T11:49:04.273Z,3.60
2023-04-23T11:50:04.270Z,3.20
2023-04-23T11:51:04.245Z,3.00
2023-04-23T11:52:04.234Z,2.70
2023-04-23T11:53:04.344Z,4.20
2023-04-23T11:54:04.215Z,2.90
2023-04-23T11:55:04.239Z,2.80
2023-04-23T11:56:04.209Z,3.00
2023-04-23T11:57:04.183Z,3.70
2023-04-23T11:58:04.173Z,3.10
2023-04-23T11:59:04.186Z,4.00
2023-04-23T12:00:04.151Z,4.10
2023-04-23T12:01:04.138Z,3.20
2023-04-23T12:02:04.173Z,3.40
2023-04-23T12:03:04.300Z,3.70
2023-04-23T12:04:04.371Z,3.10
2023-04-23T12:05:04.188Z,3.20
2023-04-23T12:06:04.082Z,3.40
2023-04-23T12:07:12.745Z,2.80
2023-04-23T12:08:05.071Z,2.70
2023-04-23T12:09:04.085Z,2.90
2023-04-23T12:10:04.064Z,3.50
2023-04-23T12:11:04.032Z,3.50
2023-04-23T12:12:04.031Z,2.60
2023-04-23T12:13:04.002Z,2.70
2023-04-23T12:14:03.989Z,3.20
2023-04-23T12:15:04.017Z,2.70
2023-04-23T12:16:04.039Z,3.40
2023-04-23T12:17:03.971Z,3.10
2023-04-23T12:18:03.951Z,2.90
2023-04-23T12:19:03.947Z,2.60
2023-04-23T12:20:03.941Z,2.40
2023-04-23T12:21:03.923Z,3.40
2023-04-23T12:22:03.924Z,2.70
2023-04-23T12:23:03.897Z,2.60
2023-04-23T12:24:03.899Z,2.40
2023-04-23T12:25:03.958Z,2.30
2023-04-23T12:26:03.862Z,2.60
2023-04-23T12:27:03.918Z,1.90
2023-04-23T12:28:03.853Z,2.10
2023-04-23T12:29:03.829Z,2.00
2023-04-23T12:30:06.411Z,2.00
2023-04-23T12:31:03.853Z,2.40
2023-04-23T12:32:03.816Z,1.90
2023-04-23T12:33:03.928Z,1.60
2023-04-23T12:34:03.793Z,2.50
2023-04-23T12:35:03.779Z,2.10
2023-04-23T12:36:03.758Z,2.60
2023-04-23T12:37:03.746Z,2.00
2023-04-23T12:38:03.740Z,1.70
2023-04-23T12:39:03.725Z,2.00
2023-04-23T12:40:03.723Z,2.00
2023-04-23T12:41:03.738Z,1.80
2023-04-23T12:42:03.701Z,1.80
2023-04-23T12:43:03.679Z,1.70
2023-04-23T12:44:03.678Z,2.10
2023-04-23T12:45:03.674Z,1.90
2023-04-23T12:46:03.664Z,1.70
2023-04-23T12:47:03.788Z,1.70
2023-04-23T12:48:03.697Z,2.00
2023-04-23T12:49:03.616Z,2.10
2023-04-23T12:50:03.645Z,2.30
2023-04-23T12:51:03.601Z,1.70
2023-04-23T12:52:03.618Z,1.70
2023-04-23T12:53:03.580Z,1.80
2023-04-23T12:54:03.620Z,2.20
2023-04-23T12:55:03.565Z,1.60
2023-04-23T12:56:03.541Z,2.00
2023-04-23T12:57:03.552Z,1.60
2023-04-23T12:58:03.525Z,1.70
2023-04-23T12:59:03.513Z,1.90
2023-04-23T13:00:03.514Z,2.00
2023-04-23T13:01:03.513Z,2.00
2023-04-23T13:02:03.841Z,1.60
2023-04-23T13:03:03.597Z,2.10
2023-04-23T13:04:03.549Z,1.70
2023-04-23T13:05:03.469Z,1.80
2023-04-23T13:06:03.435Z,1.80
2023-04-23T13:07:03.456Z,1.70
2023-04-23T13:08:03.421Z,2.10
2023-04-23T13:09:03.439Z,1.70
2023-04-23T13:10:03.385Z,1.60
2023-04-23T13:11:03.395Z,1.80
2023-04-23T13:12:03.378Z,1.50
2023-04-23T13:13:03.391Z,1.80
2023-04-23T13:14:03.562Z,1.90
2023-04-23T13:15:03.352Z,3.00
2023-04-23T13:16:03.378Z,2.00
2023-04-23T13:17:03.321Z,1.70
2023-04-23T13:18:03.392Z,1.60